sensor_id;sensor_type;location;lat;lon;timestamp;P1;durP1;ratioP1;P2;durP2;ratioP2
3781;SDS011;6881;49.962;7.718;2024-01-25T00:01:50;9.90;;;3.27;;
3781;SDS011;6881;49.962;7.718;2024-01-25T00:04:15;15.40;;;3.73;;
3781;SDS011;6881;49.962;7.718;2024-01-25T00:06:40;9.27;;;2.93;;
3781;SDS011;6881;49.962;7.718;2024-01-25T00:09:06;15.47;;;3.60;;
3781;SDS011;6881;49.962;7.718;2024-01-25T00:11:31;11.50;;;4.10;;
3781;SDS011;6881;49.962;7.718;2024-01-25T00:13:57;14.30;;;3.23;;
3781;SDS011;6881;49.962;7.718;2024-01-25T00:16:23;9.87;;;4.50;;
3781;SDS011;6881;49.962;7.718;2024-01-25T00:18:48;15.70;;;3.50;;
3781;SDS011;6881;49.962;7.718;2024-01-25T00:21:14;21.70;;;4.87;;
3781;SDS011;6881;49.962;7.718;2024-01-25T00:23:39;10.87;;;3.60;;
3781;SDS011;6881;49.962;7.718;2024-01-25T00:26:05;17.67;;;4.30;;
3781;SDS011;6881;49.962;7.718;2024-01-25T00:28:30;14.00;;;3.77;;
3781;SDS011;6881;49.962;7.718;2024-01-25T00:30:55;15.37;;;4.90;;
3781;SDS011;6881;49.962;7.718;2024-01-25T00:33:21;12.63;;;4.70;;
3781;SDS011;6881;49.962;7.718;2024-01-25T00:35:46;17.17;;;5.63;;
3781;SDS011;6881;49.962;7.718;2024-01-25T00:38:13;14.43;;;3.67;;
3781;SDS011;6881;49.962;7.718;2024-01-25T00:40:39;15.07;;;4.13;;
3781;SDS011;6881;49.962;7.718;2024-01-25T00:43:04;11.90;;;4.00;;
3781;SDS011;6881;49.962;7.718;2024-01-25T00:45:30;13.80;;;4.07;;
3781;SDS011;6881;49.962;7.718;2024-01-25T00:47:56;9.80;;;2.80;;
3781;SDS011;6881;49.962;7.718;2024-01-25T00:50:21;18.77;;;4.27;;
3781;SDS011;6881;49.962;7.718;2024-01-25T00:52:49;20.73;;;4.60;;
3781;SDS011;6881;49.962;7.718;2024-01-25T00:55:15;16.30;;;3.27;;
3781;SDS011;6881;49.962;7.718;2024-01-25T00:57:40;12.10;;;4.00;;
3781;SDS011;6881;49.962;7.718;2024-01-25T01:00:06;17.87;;;3.57;;
3781;SDS011;6881;49.962;7.718;2024-01-25T01:02:39;8.37;;;3.23;;
3781;SDS011;6881;49.962;7.718;2024-01-25T01:05:05;14.07;;;4.37;;
3781;SDS011;6881;49.962;7.718;2024-01-25T01:07:31;14.80;;;4.33;;
3781;SDS011;6881;49.962;7.718;2024-01-25T01:09:57;12.90;;;3.90;;
3781;SDS011;6881;49.962;7.718;2024-01-25T01:12:22;17.13;;;4.13;;
3781;SDS011;6881;49.962;7.718;2024-01-25T01:14:47;12.70;;;3.20;;
3781;SDS011;6881;49.962;7.718;2024-01-25T01:17:13;8.40;;;3.30;;
3781;SDS011;6881;49.962;7.718;2024-01-25T01:19:38;11.57;;;3.53;;
3781;SDS011;6881;49.962;7.718;2024-01-25T01:22:04;10.93;;;3.37;;
3781;SDS011;6881;49.962;7.718;2024-01-25T01:24:29;9.50;;;3.27;;
3781;SDS011;6881;49.962;7.718;2024-01-25T01:26:54;9.30;;;3.60;;
3781;SDS011;6881;49.962;7.718;2024-01-25T01:29:20;9.37;;;3.60;;
3781;SDS011;6881;49.962;7.718;2024-01-25T01:31:45;20.83;;;5.03;;
3781;SDS011;6881;49.962;7.718;2024-01-25T01:34:10;14.07;;;4.53;;
3781;SDS011;6881;49.962;7.718;2024-01-25T01:36:37;10.30;;;3.33;;
3781;SDS011;6881;49.962;7.718;2024-01-25T01:39:03;22.10;;;4.07;;
3781;SDS011;6881;49.962;7.718;2024-01-25T01:41:28;7.67;;;4.20;;
3781;SDS011;6881;49.962;7.718;2024-01-25T01:43:54;8.73;;;3.73;;
3781;SDS011;6881;49.962;7.718;2024-01-25T01:48:54;12.30;;;4.00;;
3781;SDS011;6881;49.962;7.718;2024-01-25T01:51:19;16.37;;;4.37;;
3781;SDS011;6881;49.962;7.718;2024-01-25T01:53:45;14.03;;;3.83;;
3781;SDS011;6881;49.962;7.718;2024-01-25T01:56:11;11.80;;;3.97;;
3781;SDS011;6881;49.962;7.718;2024-01-25T01:58:36;15.93;;;3.93;;
3781;SDS011;6881;49.962;7.718;2024-01-25T02:01:01;11.60;;;4.20;;
3781;SDS011;6881;49.962;7.718;2024-01-25T02:03:27;14.43;;;4.60;;
3781;SDS011;6881;49.962;7.718;2024-01-25T02:05:52;35.67;;;9.23;;
3781;SDS011;6881;49.962;7.718;2024-01-25T02:08:17;22.03;;;5.50;;
3781;SDS011;6881;49.962;7.718;2024-01-25T02:10:43;21.00;;;4.73;;
3781;SDS011;6881;49.962;7.718;2024-01-25T02:13:08;13.97;;;3.40;;
3781;SDS011;6881;49.962;7.718;2024-01-25T02:15:33;8.83;;;3.73;;
3781;SDS011;6881;49.962;7.718;2024-01-25T02:17:59;10.87;;;3.73;;
3781;SDS011;6881;49.962;7.718;2024-01-25T02:20:24;23.80;;;4.60;;
3781;SDS011;6881;49.962;7.718;2024-01-25T02:22:50;13.33;;;4.07;;
3781;SDS011;6881;49.962;7.718;2024-01-25T02:25:15;9.13;;;3.00;;
3781;SDS011;6881;49.962;7.718;2024-01-25T02:27:40;13.37;;;3.53;;
3781;SDS011;6881;49.962;7.718;2024-01-25T02:30:06;12.23;;;3.77;;
3781;SDS011;6881;49.962;7.718;2024-01-25T02:32:32;17.03;;;4.10;;
3781;SDS011;6881;49.962;7.718;2024-01-25T02:34:57;11.70;;;4.30;;
3781;SDS011;6881;49.962;7.718;2024-01-25T02:37:23;25.87;;;4.20;;
3781;SDS011;6881;49.962;7.718;2024-01-25T02:39:48;20.60;;;4.20;;
3781;SDS011;6881;49.962;7.718;2024-01-25T02:42:13;10.33;;;3.30;;
3781;SDS011;6881;49.962;7.718;2024-01-25T02:44:41;17.00;;;4.23;;
3781;SDS011;6881;49.962;7.718;2024-01-25T02:47:07;16.40;;;4.30;;
3781;SDS011;6881;49.962;7.718;2024-01-25T02:49:32;13.10;;;3.60;;
3781;SDS011;6881;49.962;7.718;2024-01-25T02:51:57;14.70;;;4.77;;
3781;SDS011;6881;49.962;7.718;2024-01-25T02:54:23;22.40;;;5.73;;
3781;SDS011;6881;49.962;7.718;2024-01-25T02:56:48;13.10;;;4.53;;
3781;SDS011;6881;49.962;7.718;2024-01-25T02:59:14;19.60;;;4.60;;
3781;SDS011;6881;49.962;7.718;2024-01-25T03:01:42;14.40;;;4.93;;
3781;SDS011;6881;49.962;7.718;2024-01-25T03:04:07;11.60;;;3.60;;
3781;SDS011;6881;49.962;7.718;2024-01-25T03:06:33;11.30;;;4.20;;
3781;SDS011;6881;49.962;7.718;2024-01-25T03:08:58;7.30;;;3.70;;
3781;SDS011;6881;49.962;7.718;2024-01-25T03:11:24;18.03;;;4.30;;
3781;SDS011;6881;49.962;7.718;2024-01-25T03:13:49;17.97;;;4.33;;
3781;SDS011;6881;49.962;7.718;2024-01-25T03:16:14;18.13;;;3.03;;
3781;SDS011;6881;49.962;7.718;2024-01-25T03:18:39;28.43;;;4.33;;
3781;SDS011;6881;49.962;7.718;2024-01-25T03:21:05;14.67;;;4.80;;
3781;SDS011;6881;49.962;7.718;2024-01-25T03:23:30;15.53;;;4.40;;
3781;SDS011;6881;49.962;7.718;2024-01-25T03:25:55;13.60;;;5.03;;
3781;SDS011;6881;49.962;7.718;2024-01-25T03:28:21;24.47;;;4.30;;
3781;SDS011;6881;49.962;7.718;2024-01-25T03:30:47;15.63;;;6.07;;
3781;SDS011;6881;49.962;7.718;2024-01-25T03:33:12;18.23;;;4.43;;
3781;SDS011;6881;49.962;7.718;2024-01-25T03:35:37;18.17;;;4.20;;
3781;SDS011;6881;49.962;7.718;2024-01-25T03:38:02;16.60;;;4.23;;
3781;SDS011;6881;49.962;7.718;2024-01-25T03:40:28;11.63;;;4.50;;
3781;SDS011;6881;49.962;7.718;2024-01-25T03:42:53;11.93;;;4.23;;
3781;SDS011;6881;49.962;7.718;2024-01-25T03:45:18;17.20;;;3.93;;
3781;SDS011;6881;49.962;7.718;2024-01-25T03:47:44;11.73;;;3.87;;
3781;SDS011;6881;49.962;7.718;2024-01-25T03:50:09;9.97;;;2.80;;
3781;SDS011;6881;49.962;7.718;2024-01-25T03:52:35;13.57;;;3.90;;
3781;SDS011;6881;49.962;7.718;2024-01-25T03:55:00;43.73;;;5.23;;
3781;SDS011;6881;49.962;7.718;2024-01-25T03:57:25;32.77;;;5.20;;
3781;SDS011;6881;49.962;7.718;2024-01-25T03:59:50;13.60;;;4.37;;
3781;SDS011;6881;49.962;7.718;2024-01-25T04:02:16;16.00;;;4.90;;
3781;SDS011;6881;49.962;7.718;2024-01-25T04:04:41;14.93;;;4.43;;
3781;SDS011;6881;49.962;7.718;2024-01-25T04:07:07;24.40;;;4.27;;
3781;SDS011;6881;49.962;7.718;2024-01-25T04:09:32;13.10;;;3.70;;
3781;SDS011;6881;49.962;7.718;2024-01-25T04:11:57;14.47;;;4.10;;
3781;SDS011;6881;49.962;7.718;2024-01-25T04:14:23;19.07;;;5.17;;
3781;SDS011;6881;49.962;7.718;2024-01-25T04:16:48;19.30;;;4.57;;
3781;SDS011;6881;49.962;7.718;2024-01-25T04:19:14;12.80;;;3.90;;
3781;SDS011;6881;49.962;7.718;2024-01-25T04:21:39;14.63;;;4.70;;
3781;SDS011;6881;49.962;7.718;2024-01-25T04:24:05;17.03;;;5.63;;
3781;SDS011;6881;49.962;7.718;2024-01-25T04:26:30;18.37;;;4.80;;
3781;SDS011;6881;49.962;7.718;2024-01-25T04:28:55;20.63;;;5.10;;
3781;SDS011;6881;49.962;7.718;2024-01-25T04:31:21;13.23;;;3.87;;
3781;SDS011;6881;49.962;7.718;2024-01-25T04:33:46;15.33;;;4.23;;
3781;SDS011;6881;49.962;7.718;2024-01-25T04:36:11;27.47;;;4.50;;
3781;SDS011;6881;49.962;7.718;2024-01-25T04:38:37;15.07;;;5.13;;
3781;SDS011;6881;49.962;7.718;2024-01-25T04:41:02;23.23;;;4.07;;
3781;SDS011;6881;49.962;7.718;2024-01-25T04:43:27;18.90;;;5.93;;
3781;SDS011;6881;49.962;7.718;2024-01-25T04:45:53;12.63;;;4.13;;
3781;SDS011;6881;49.962;7.718;2024-01-25T04:48:18;14.10;;;4.17;;
3781;SDS011;6881;49.962;7.718;2024-01-25T04:50:43;15.67;;;4.10;;
3781;SDS011;6881;49.962;7.718;2024-01-25T04:53:09;12.83;;;4.03;;
3781;SDS011;6881;49.962;7.718;2024-01-25T04:55:34;17.40;;;5.23;;
3781;SDS011;6881;49.962;7.718;2024-01-25T04:57:59;14.60;;;4.80;;
3781;SDS011;6881;49.962;7.718;2024-01-25T05:00:25;14.03;;;4.50;;
3781;SDS011;6881;49.962;7.718;2024-01-25T05:02:50;20.00;;;4.40;;
3781;SDS011;6881;49.962;7.718;2024-01-25T05:05:15;19.23;;;5.30;;
3781;SDS011;6881;49.962;7.718;2024-01-25T05:07:41;17.47;;;5.40;;
3781;SDS011;6881;49.962;7.718;2024-01-25T05:10:07;20.60;;;4.63;;
3781;SDS011;6881;49.962;7.718;2024-01-25T05:12:32;16.03;;;5.07;;
3781;SDS011;6881;49.962;7.718;2024-01-25T05:14:58;20.70;;;5.77;;
3781;SDS011;6881;49.962;7.718;2024-01-25T05:17:23;13.60;;;4.50;;
3781;SDS011;6881;49.962;7.718;2024-01-25T05:19:49;32.13;;;5.83;;
3781;SDS011;6881;49.962;7.718;2024-01-25T05:22:14;11.60;;;4.63;;
3781;SDS011;6881;49.962;7.718;2024-01-25T05:24:40;23.10;;;5.07;;
3781;SDS011;6881;49.962;7.718;2024-01-25T05:27:05;21.80;;;5.40;;
3781;SDS011;6881;49.962;7.718;2024-01-25T05:29:30;11.63;;;4.00;;
3781;SDS011;6881;49.962;7.718;2024-01-25T05:31:55;23.50;;;5.73;;
3781;SDS011;6881;49.962;7.718;2024-01-25T05:34:21;14.03;;;4.60;;
3781;SDS011;6881;49.962;7.718;2024-01-25T05:36:46;18.47;;;4.97;;
3781;SDS011;6881;49.962;7.718;2024-01-25T05:39:12;15.60;;;4.33;;
3781;SDS011;6881;49.962;7.718;2024-01-25T05:41:38;12.77;;;3.67;;
3781;SDS011;6881;49.962;7.718;2024-01-25T05:44:04;17.93;;;5.20;;
3781;SDS011;6881;49.962;7.718;2024-01-25T05:46:29;21.67;;;6.00;;
3781;SDS011;6881;49.962;7.718;2024-01-25T05:48:54;19.07;;;5.50;;
3781;SDS011;6881;49.962;7.718;2024-01-25T05:51:20;14.13;;;5.30;;
3781;SDS011;6881;49.962;7.718;2024-01-25T05:53:45;16.83;;;6.37;;
3781;SDS011;6881;49.962;7.718;2024-01-25T05:56:10;18.70;;;6.53;;
3781;SDS011;6881;49.962;7.718;2024-01-25T05:58:36;15.43;;;5.83;;
3781;SDS011;6881;49.962;7.718;2024-01-25T06:01:02;19.20;;;6.30;;
3781;SDS011;6881;49.962;7.718;2024-01-25T06:03:27;29.30;;;7.53;;
3781;SDS011;6881;49.962;7.718;2024-01-25T06:05:53;19.67;;;7.30;;
3781;SDS011;6881;49.962;7.718;2024-01-25T06:08:18;17.97;;;5.80;;
3781;SDS011;6881;49.962;7.718;2024-01-25T06:10:43;16.90;;;6.67;;
3781;SDS011;6881;49.962;7.718;2024-01-25T06:13:09;19.83;;;7.50;;
3781;SDS011;6881;49.962;7.718;2024-01-25T06:15:34;9.10;;;4.90;;
3781;SDS011;6881;49.962;7.718;2024-01-25T06:17:59;16.90;;;6.20;;
3781;SDS011;6881;49.962;7.718;2024-01-25T06:20:25;12.13;;;4.27;;
3781;SDS011;6881;49.962;7.718;2024-01-25T06:22:50;12.20;;;4.00;;
3781;SDS011;6881;49.962;7.718;2024-01-25T06:25:15;10.67;;;5.17;;
3781;SDS011;6881;49.962;7.718;2024-01-25T06:27:41;13.77;;;5.47;;
3781;SDS011;6881;49.962;7.718;2024-01-25T06:30:06;17.33;;;5.30;;
3781;SDS011;6881;49.962;7.718;2024-01-25T06:32:32;17.60;;;6.57;;
3781;SDS011;6881;49.962;7.718;2024-01-25T06:34:57;13.17;;;6.87;;
3781;SDS011;6881;49.962;7.718;2024-01-25T06:37:22;25.17;;;8.90;;
3781;SDS011;6881;49.962;7.718;2024-01-25T06:39:48;20.40;;;10.03;;
3781;SDS011;6881;49.962;7.718;2024-01-25T06:42:13;11.80;;;6.90;;
3781;SDS011;6881;49.962;7.718;2024-01-25T06:44:38;12.10;;;6.10;;
3781;SDS011;6881;49.962;7.718;2024-01-25T06:47:04;15.87;;;5.93;;
3781;SDS011;6881;49.962;7.718;2024-01-25T06:49:29;11.37;;;4.83;;
3781;SDS011;6881;49.962;7.718;2024-01-25T06:51:54;16.70;;;5.37;;
3781;SDS011;6881;49.962;7.718;2024-01-25T06:54:20;11.63;;;4.97;;
3781;SDS011;6881;49.962;7.718;2024-01-25T06:56:45;14.43;;;5.63;;
3781;SDS011;6881;49.962;7.718;2024-01-25T06:59:10;11.80;;;5.27;;
3781;SDS011;6881;49.962;7.718;2024-01-25T07:01:36;17.73;;;4.67;;
3781;SDS011;6881;49.962;7.718;2024-01-25T07:04:01;20.33;;;6.03;;
3781;SDS011;6881;49.962;7.718;2024-01-25T07:06:28;14.13;;;5.40;;
3781;SDS011;6881;49.962;7.718;2024-01-25T07:08:53;15.17;;;6.27;;
3781;SDS011;6881;49.962;7.718;2024-01-25T07:11:19;19.40;;;7.33;;
3781;SDS011;6881;49.962;7.718;2024-01-25T07:13:44;17.27;;;6.47;;
3781;SDS011;6881;49.962;7.718;2024-01-25T07:16:10;13.73;;;5.33;;
3781;SDS011;6881;49.962;7.718;2024-01-25T07:18:35;22.63;;;7.43;;
3781;SDS011;6881;49.962;7.718;2024-01-25T07:21:00;18.47;;;6.73;;
3781;SDS011;6881;49.962;7.718;2024-01-25T07:23:26;17.83;;;6.80;;
3781;SDS011;6881;49.962;7.718;2024-01-25T07:25:52;19.30;;;7.20;;
3781;SDS011;6881;49.962;7.718;2024-01-25T07:28:18;11.33;;;6.47;;
3781;SDS011;6881;49.962;7.718;2024-01-25T07:30:46;23.60;;;7.00;;
3781;SDS011;6881;49.962;7.718;2024-01-25T07:33:15;13.90;;;6.03;;
3781;SDS011;6881;49.962;7.718;2024-01-25T07:35:40;13.03;;;5.93;;
3781;SDS011;6881;49.962;7.718;2024-01-25T07:38:10;17.63;;;5.50;;
3781;SDS011;6881;49.962;7.718;2024-01-25T07:40:39;11.93;;;4.30;;
3781;SDS011;6881;49.962;7.718;2024-01-25T07:43:04;18.63;;;5.60;;
3781;SDS011;6881;49.962;7.718;2024-01-25T07:45:30;11.97;;;4.17;;
3781;SDS011;6881;49.962;7.718;2024-01-25T07:47:56;9.30;;;4.40;;
3781;SDS011;6881;49.962;7.718;2024-01-25T07:50:21;23.23;;;6.03;;
3781;SDS011;6881;49.962;7.718;2024-01-25T07:52:47;20.87;;;5.23;;
3781;SDS011;6881;49.962;7.718;2024-01-25T07:55:12;13.83;;;5.00;;
3781;SDS011;6881;49.962;7.718;2024-01-25T07:57:37;22.10;;;5.73;;
3781;SDS011;6881;49.962;7.718;2024-01-25T08:00:03;26.23;;;7.13;;
3781;SDS011;6881;49.962;7.718;2024-01-25T08:02:29;24.30;;;6.33;;
3781;SDS011;6881;49.962;7.718;2024-01-25T08:04:54;21.30;;;5.43;;
3781;SDS011;6881;49.962;7.718;2024-01-25T08:07:22;15.93;;;5.53;;
3781;SDS011;6881;49.962;7.718;2024-01-25T08:09:47;31.00;;;7.80;;
3781;SDS011;6881;49.962;7.718;2024-01-25T08:12:16;18.83;;;7.90;;
3781;SDS011;6881;49.962;7.718;2024-01-25T08:14:42;15.43;;;6.43;;
3781;SDS011;6881;49.962;7.718;2024-01-25T08:17:09;19.73;;;5.90;;
3781;SDS011;6881;49.962;7.718;2024-01-25T08:19:34;16.23;;;5.30;;
3781;SDS011;6881;49.962;7.718;2024-01-25T08:22:00;20.13;;;9.30;;
3781;SDS011;6881;49.962;7.718;2024-01-25T08:24:25;18.47;;;9.97;;
3781;SDS011;6881;49.962;7.718;2024-01-25T08:26:50;20.13;;;10.37;;
3781;SDS011;6881;49.962;7.718;2024-01-25T08:29:15;22.17;;;9.93;;
3781;SDS011;6881;49.962;7.718;2024-01-25T08:31:41;13.90;;;8.67;;
3781;SDS011;6881;49.962;7.718;2024-01-25T08:34:06;13.90;;;7.80;;
3781;SDS011;6881;49.962;7.718;2024-01-25T08:36:31;14.93;;;7.10;;
3781;SDS011;6881;49.962;7.718;2024-01-25T08:38:57;13.30;;;7.33;;
3781;SDS011;6881;49.962;7.718;2024-01-25T08:41:22;12.60;;;5.03;;
3781;SDS011;6881;49.962;7.718;2024-01-25T08:43:49;13.90;;;4.83;;
3781;SDS011;6881;49.962;7.718;2024-01-25T08:46:14;24.27;;;6.10;;
3781;SDS011;6881;49.962;7.718;2024-01-25T08:48:40;15.67;;;8.10;;
3781;SDS011;6881;49.962;7.718;2024-01-25T08:51:06;14.63;;;4.87;;
3781;SDS011;6881;49.962;7.718;2024-01-25T08:53:31;17.40;;;4.97;;
3781;SDS011;6881;49.962;7.718;2024-01-25T08:55:56;13.17;;;4.83;;
3781;SDS011;6881;49.962;7.718;2024-01-25T08:58:22;10.23;;;4.30;;
3781;SDS011;6881;49.962;7.718;2024-01-25T09:00:47;13.03;;;5.43;;
3781;SDS011;6881;49.962;7.718;2024-01-25T09:03:13;12.20;;;5.50;;
3781;SDS011;6881;49.962;7.718;2024-01-25T09:05:39;7.13;;;4.10;;
3781;SDS011;6881;49.962;7.718;2024-01-25T09:08:09;12.63;;;4.90;;
3781;SDS011;6881;49.962;7.718;2024-01-25T09:10:40;16.10;;;5.37;;
3781;SDS011;6881;49.962;7.718;2024-01-25T09:13:06;16.00;;;5.73;;
3781;SDS011;6881;49.962;7.718;2024-01-25T09:15:31;12.10;;;5.10;;
3781;SDS011;6881;49.962;7.718;2024-01-25T09:17:56;12.40;;;5.00;;
3781;SDS011;6881;49.962;7.718;2024-01-25T09:20:22;12.60;;;5.10;;
3781;SDS011;6881;49.962;7.718;2024-01-25T09:22:47;14.70;;;5.33;;
3781;SDS011;6881;49.962;7.718;2024-01-25T09:25:12;14.13;;;5.90;;
3781;SDS011;6881;49.962;7.718;2024-01-25T09:27:38;20.17;;;5.97;;
3781;SDS011;6881;49.962;7.718;2024-01-25T09:30:04;16.40;;;7.03;;
3781;SDS011;6881;49.962;7.718;2024-01-25T09:32:30;15.23;;;6.23;;
3781;SDS011;6881;49.962;7.718;2024-01-25T09:34:55;16.27;;;5.00;;
3781;SDS011;6881;49.962;7.718;2024-01-25T09:37:20;17.30;;;7.20;;
3781;SDS011;6881;49.962;7.718;2024-01-25T09:39:48;15.50;;;5.70;;
3781;SDS011;6881;49.962;7.718;2024-01-25T09:42:13;16.93;;;4.97;;
3781;SDS011;6881;49.962;7.718;2024-01-25T09:44:39;14.90;;;5.80;;
3781;SDS011;6881;49.962;7.718;2024-01-25T09:47:05;17.53;;;5.67;;
3781;SDS011;6881;49.962;7.718;2024-01-25T09:49:32;12.70;;;5.27;;
3781;SDS011;6881;49.962;7.718;2024-01-25T09:51:58;14.23;;;5.43;;
3781;SDS011;6881;49.962;7.718;2024-01-25T09:54:24;15.57;;;5.53;;
3781;SDS011;6881;49.962;7.718;2024-01-25T09:56:50;14.57;;;5.00;;
3781;SDS011;6881;49.962;7.718;2024-01-25T09:59:16;12.87;;;5.87;;
3781;SDS011;6881;49.962;7.718;2024-01-25T10:01:41;8.33;;;4.40;;
3781;SDS011;6881;49.962;7.718;2024-01-25T10:04:08;14.10;;;5.03;;
3781;SDS011;6881;49.962;7.718;2024-01-25T10:06:33;16.43;;;4.90;;
3781;SDS011;6881;49.962;7.718;2024-01-25T10:08:58;15.37;;;5.20;;
3781;SDS011;6881;49.962;7.718;2024-01-25T10:11:24;16.53;;;6.30;;
3781;SDS011;6881;49.962;7.718;2024-01-25T10:13:49;11.10;;;6.00;;
3781;SDS011;6881;49.962;7.718;2024-01-25T10:16:19;13.40;;;5.77;;
3781;SDS011;6881;49.962;7.718;2024-01-25T10:18:47;15.90;;;5.80;;
3781;SDS011;6881;49.962;7.718;2024-01-25T10:21:13;17.33;;;6.20;;
3781;SDS011;6881;49.962;7.718;2024-01-25T10:23:40;17.03;;;7.10;;
3781;SDS011;6881;49.962;7.718;2024-01-25T10:26:08;20.07;;;6.27;;
3781;SDS011;6881;49.962;7.718;2024-01-25T10:28:33;15.50;;;6.00;;
3781;SDS011;6881;49.962;7.718;2024-01-25T10:30:59;15.50;;;5.00;;
3781;SDS011;6881;49.962;7.718;2024-01-25T10:33:26;14.67;;;6.00;;
3781;SDS011;6881;49.962;7.718;2024-01-25T10:35:53;16.70;;;5.03;;
3781;SDS011;6881;49.962;7.718;2024-01-25T10:38:20;14.73;;;6.13;;
3781;SDS011;6881;49.962;7.718;2024-01-25T10:40:46;14.93;;;5.83;;
3781;SDS011;6881;49.962;7.718;2024-01-25T10:43:12;14.27;;;5.57;;
3781;SDS011;6881;49.962;7.718;2024-01-25T10:45:37;13.30;;;5.10;;
3781;SDS011;6881;49.962;7.718;2024-01-25T10:48:03;14.80;;;4.87;;
3781;SDS011;6881;49.962;7.718;2024-01-25T10:50:29;12.67;;;4.50;;
3781;SDS011;6881;49.962;7.718;2024-01-25T10:52:54;19.70;;;6.10;;
3781;SDS011;6881;49.962;7.718;2024-01-25T10:55:20;9.43;;;4.43;;
3781;SDS011;6881;49.962;7.718;2024-01-25T10:57:46;21.07;;;6.67;;
3781;SDS011;6881;49.962;7.718;2024-01-25T11:00:12;16.90;;;5.30;;
3781;SDS011;6881;49.962;7.718;2024-01-25T11:02:39;10.40;;;4.50;;
3781;SDS011;6881;49.962;7.718;2024-01-25T11:05:09;16.87;;;6.10;;
3781;SDS011;6881;49.962;7.718;2024-01-25T11:07:42;15.27;;;6.37;;
3781;SDS011;6881;49.962;7.718;2024-01-25T11:10:21;12.43;;;6.47;;
3781;SDS011;6881;49.962;7.718;2024-01-25T11:12:55;14.20;;;6.50;;
3781;SDS011;6881;49.962;7.718;2024-01-25T11:15:32;16.03;;;6.43;;
3781;SDS011;6881;49.962;7.718;2024-01-25T11:17:59;13.07;;;4.43;;
3781;SDS011;6881;49.962;7.718;2024-01-25T11:20:26;16.13;;;5.77;;
3781;SDS011;6881;49.962;7.718;2024-01-25T11:22:59;12.43;;;6.90;;
3781;SDS011;6881;49.962;7.718;2024-01-25T11:25:31;13.20;;;8.00;;
3781;SDS011;6881;49.962;7.718;2024-01-25T11:27:58;17.17;;;7.87;;
3781;SDS011;6881;49.962;7.718;2024-01-25T11:30:25;18.93;;;7.20;;
3781;SDS011;6881;49.962;7.718;2024-01-25T11:32:50;16.67;;;6.80;;
3781;SDS011;6881;49.962;7.718;2024-01-25T11:35:16;15.20;;;5.80;;
3781;SDS011;6881;49.962;7.718;2024-01-25T11:37:51;13.50;;;5.67;;
3781;SDS011;6881;49.962;7.718;2024-01-25T11:40:17;13.97;;;4.97;;
3781;SDS011;6881;49.962;7.718;2024-01-25T11:42:43;14.00;;;5.40;;
3781;SDS011;6881;49.962;7.718;2024-01-25T11:45:10;17.87;;;5.63;;
3781;SDS011;6881;49.962;7.718;2024-01-25T11:47:36;13.97;;;3.90;;
3781;SDS011;6881;49.962;7.718;2024-01-25T11:50:03;8.33;;;5.03;;
3781;SDS011;6881;49.962;7.718;2024-01-25T11:52:28;12.20;;;5.10;;
3781;SDS011;6881;49.962;7.718;2024-01-25T11:54:57;11.83;;;4.50;;
3781;SDS011;6881;49.962;7.718;2024-01-25T11:57:23;11.43;;;4.83;;
3781;SDS011;6881;49.962;7.718;2024-01-25T11:59:48;12.83;;;5.13;;
3781;SDS011;6881;49.962;7.718;2024-01-25T12:02:14;12.77;;;4.90;;
3781;SDS011;6881;49.962;7.718;2024-01-25T12:04:40;11.77;;;3.77;;
3781;SDS011;6881;49.962;7.718;2024-01-25T12:07:05;14.10;;;5.07;;
3781;SDS011;6881;49.962;7.718;2024-01-25T12:09:30;12.47;;;3.17;;
3781;SDS011;6881;49.962;7.718;2024-01-25T12:11:56;8.73;;;3.93;;
3781;SDS011;6881;49.962;7.718;2024-01-25T12:14:23;8.80;;;4.40;;
3781;SDS011;6881;49.962;7.718;2024-01-25T12:16:49;7.57;;;3.73;;
3781;SDS011;6881;49.962;7.718;2024-01-25T12:19:14;16.83;;;5.33;;
3781;SDS011;6881;49.962;7.718;2024-01-25T12:21:43;12.40;;;4.27;;
3781;SDS011;6881;49.962;7.718;2024-01-25T12:24:09;13.00;;;4.30;;
3781;SDS011;6881;49.962;7.718;2024-01-25T12:26:35;12.03;;;4.07;;
3781;SDS011;6881;49.962;7.718;2024-01-25T12:29:01;6.73;;;3.80;;
3781;SDS011;6881;49.962;7.718;2024-01-25T12:31:26;13.37;;;5.43;;
3781;SDS011;6881;49.962;7.718;2024-01-25T12:33:51;11.77;;;4.23;;
3781;SDS011;6881;49.962;7.718;2024-01-25T12:36:17;10.20;;;4.10;;
3781;SDS011;6881;49.962;7.718;2024-01-25T12:38:42;15.07;;;5.53;;
3781;SDS011;6881;49.962;7.718;2024-01-25T12:41:07;13.57;;;4.03;;
3781;SDS011;6881;49.962;7.718;2024-01-25T12:43:32;12.70;;;6.10;;
3781;SDS011;6881;49.962;7.718;2024-01-25T12:45:58;11.10;;;4.93;;
3781;SDS011;6881;49.962;7.718;2024-01-25T12:48:23;5.77;;;3.40;;
3781;SDS011;6881;49.962;7.718;2024-01-25T12:50:48;14.97;;;4.80;;
3781;SDS011;6881;49.962;7.718;2024-01-25T12:53:14;7.83;;;3.53;;
3781;SDS011;6881;49.962;7.718;2024-01-25T12:55:40;10.63;;;3.93;;
3781;SDS011;6881;49.962;7.718;2024-01-25T12:58:05;8.97;;;3.03;;
3781;SDS011;6881;49.962;7.718;2024-01-25T13:00:30;10.30;;;4.30;;
3781;SDS011;6881;49.962;7.718;2024-01-25T13:02:56;7.83;;;3.10;;
3781;SDS011;6881;49.962;7.718;2024-01-25T13:05:22;11.47;;;3.60;;
3781;SDS011;6881;49.962;7.718;2024-01-25T13:07:47;14.53;;;4.90;;
3781;SDS011;6881;49.962;7.718;2024-01-25T13:10:13;13.33;;;3.77;;
3781;SDS011;6881;49.962;7.718;2024-01-25T13:12:38;14.67;;;3.47;;
3781;SDS011;6881;49.962;7.718;2024-01-25T13:15:04;9.30;;;3.07;;
3781;SDS011;6881;49.962;7.718;2024-01-25T13:17:30;11.53;;;4.60;;
3781;SDS011;6881;49.962;7.718;2024-01-25T13:19:57;7.13;;;3.40;;
3781;SDS011;6881;49.962;7.718;2024-01-25T13:22:22;13.30;;;5.43;;
3781;SDS011;6881;49.962;7.718;2024-01-25T13:24:49;12.50;;;4.00;;
3781;SDS011;6881;49.962;7.718;2024-01-25T13:27:15;10.43;;;3.57;;
3781;SDS011;6881;49.962;7.718;2024-01-25T13:29:40;5.90;;;3.23;;
3781;SDS011;6881;49.962;7.718;2024-01-25T13:32:05;9.03;;;2.80;;
3781;SDS011;6881;49.962;7.718;2024-01-25T13:34:31;10.97;;;4.40;;
3781;SDS011;6881;49.962;7.718;2024-01-25T13:36:56;7.07;;;2.80;;
3781;SDS011;6881;49.962;7.718;2024-01-25T13:39:21;14.60;;;3.93;;
3781;SDS011;6881;49.962;7.718;2024-01-25T13:41:47;10.20;;;2.87;;
3781;SDS011;6881;49.962;7.718;2024-01-25T13:44:13;9.90;;;3.37;;
3781;SDS011;6881;49.962;7.718;2024-01-25T13:46:39;8.20;;;3.67;;
3781;SDS011;6881;49.962;7.718;2024-01-25T13:49:04;8.43;;;3.50;;
3781;SDS011;6881;49.962;7.718;2024-01-25T13:51:30;8.33;;;3.03;;
3781;SDS011;6881;49.962;7.718;2024-01-25T13:53:55;10.03;;;3.90;;
3781;SDS011;6881;49.962;7.718;2024-01-25T13:56:20;9.80;;;4.30;;
3781;SDS011;6881;49.962;7.718;2024-01-25T13:58:46;11.00;;;4.40;;
3781;SDS011;6881;49.962;7.718;2024-01-25T14:01:11;14.83;;;3.90;;
3781;SDS011;6881;49.962;7.718;2024-01-25T14:03:36;7.60;;;3.10;;
3781;SDS011;6881;49.962;7.718;2024-01-25T14:06:02;8.37;;;4.00;;
3781;SDS011;6881;49.962;7.718;2024-01-25T14:08:29;16.10;;;5.80;;
3781;SDS011;6881;49.962;7.718;2024-01-25T14:10:56;12.47;;;5.13;;
3781;SDS011;6881;49.962;7.718;2024-01-25T14:13:22;9.70;;;4.97;;
3781;SDS011;6881;49.962;7.718;2024-01-25T14:15:47;8.40;;;3.80;;
3781;SDS011;6881;49.962;7.718;2024-01-25T14:18:12;11.00;;;4.80;;
3781;SDS011;6881;49.962;7.718;2024-01-25T14:20:38;9.87;;;3.97;;
3781;SDS011;6881;49.962;7.718;2024-01-25T14:23:03;6.53;;;3.50;;
3781;SDS011;6881;49.962;7.718;2024-01-25T14:25:28;14.33;;;3.83;;
3781;SDS011;6881;49.962;7.718;2024-01-25T14:27:54;9.63;;;4.60;;
3781;SDS011;6881;49.962;7.718;2024-01-25T14:30:19;16.90;;;4.17;;
3781;SDS011;6881;49.962;7.718;2024-01-25T14:32:45;10.80;;;4.10;;
3781;SDS011;6881;49.962;7.718;2024-01-25T14:35:12;8.60;;;3.90;;
3781;SDS011;6881;49.962;7.718;2024-01-25T14:37:37;14.87;;;4.47;;
3781;SDS011;6881;49.962;7.718;2024-01-25T14:40:03;7.80;;;3.63;;
3781;SDS011;6881;49.962;7.718;2024-01-25T14:42:28;6.20;;;3.13;;
3781;SDS011;6881;49.962;7.718;2024-01-25T14:44:54;9.53;;;3.00;;
3781;SDS011;6881;49.962;7.718;2024-01-25T14:47:19;11.63;;;3.90;;
3781;SDS011;6881;49.962;7.718;2024-01-25T14:49:47;9.20;;;3.10;;
3781;SDS011;6881;49.962;7.718;2024-01-25T14:52:13;10.77;;;4.33;;
3781;SDS011;6881;49.962;7.718;2024-01-25T14:54:38;18.40;;;4.90;;
3781;SDS011;6881;49.962;7.718;2024-01-25T14:57:04;14.20;;;4.20;;